createdAt,value
2022-08-25T00:01:37.520Z,26.58
2022-08-25T00:04:10.314Z,26.52
2022-08-25T00:06:39.735Z,26.57
2022-08-25T00:09:06.521Z,26.47
2022-08-25T00:11:35.957Z,26.38
2022-08-25T00:14:06.723Z,26.36
2022-08-25T00:16:33.873Z,26.35
2022-08-25T00:19:07.473Z,26.28
2022-08-25T00:21:34.022Z,26.23
2022-08-25T00:24:02.280Z,26.22
2022-08-25T00:26:30.661Z,26.10
2022-08-25T00:29:01.918Z,25.99
2022-08-25T00:31:37.776Z,25.99
2022-08-25T00:34:11.857Z,26.02
2022-08-25T00:36:39.393Z,26.00
2022-08-25T00:39:08.546Z,25.91
2022-08-25T00:41:36.008Z,25.97
2022-08-25T00:44:05.584Z,25.95
2022-08-25T00:46:43.624Z,25.84
2022-08-25T00:49:25.031Z,25.83
2022-08-25T00:52:00.173Z,25.77
2022-08-25T00:54:37.687Z,25.77
2022-08-25T00:57:06.118Z,25.65
2022-08-25T00:59:33.611Z,25.68
2022-08-25T01:02:01.116Z,25.63
2022-08-25T01:04:27.643Z,25.66
2022-08-25T01:06:55.621Z,25.48
2022-08-25T01:09:22.463Z,25.47
2022-08-25T01:11:49.451Z,25.49
2022-08-25T01:14:20.031Z,25.39
2022-08-25T01:16:46.632Z,25.41
2022-08-25T01:19:17.532Z,25.41
2022-08-25T01:21:48.304Z,25.33
2022-08-25T01:24:24.632Z,25.29
2022-08-25T01:26:51.911Z,25.28
2022-08-25T01:29:21.467Z,25.30
2022-08-25T01:31:50.238Z,25.32
2022-08-25T01:34:19.594Z,25.23
2022-08-25T01:36:46.256Z,25.21
2022-08-25T01:39:14.313Z,25.24
2022-08-25T01:42:02.408Z,25.25
2022-08-25T01:44:30.012Z,25.09
2022-08-25T01:46:58.136Z,25.09
2022-08-25T01:49:24.863Z,25.06
2022-08-25T01:52:01.721Z,25.05
2022-08-25T01:54:28.260Z,25.04
2022-08-25T01:56:55.502Z,25.06
2022-08-25T01:59:23.803Z,24.88
2022-08-25T02:01:51.668Z,25.01
2022-08-25T02:04:26.853Z,24.99
2022-08-25T02:06:53.376Z,24.98
2022-08-25T02:09:19.888Z,25.00
2022-08-25T02:11:47.763Z,24.94
2022-08-25T02:14:15.518Z,24.82
2022-08-25T02:16:46.365Z,24.80
2022-08-25T02:19:12.956Z,24.89
2022-08-25T02:21:39.496Z,24.84
2022-08-25T02:24:07.515Z,24.77
2022-08-25T02:26:34.105Z,24.77
2022-08-25T02:29:01.188Z,24.78
2022-08-25T02:31:28.699Z,24.62
2022-08-25T02:33:55.304Z,24.66
2022-08-25T02:36:23.179Z,24.52
2022-08-25T02:38:50.334Z,24.58
2022-08-25T02:41:20.192Z,24.54
2022-08-25T02:43:48.545Z,24.59
2022-08-25T02:46:17.306Z,24.56
2022-08-25T02:48:44.495Z,24.53
2022-08-25T02:51:12.223Z,24.46
2022-08-25T02:53:40.645Z,24.43
2022-08-25T02:56:09.560Z,24.44
2022-08-25T02:58:37.586Z,24.36
2022-08-25T03:01:05.087Z,24.33
2022-08-25T03:03:34.260Z,24.25
2022-08-25T03:06:02.890Z,24.26
2022-08-25T03:08:30.220Z,24.21
2022-08-25T03:10:56.718Z,24.20
2022-08-25T03:13:23.304Z,24.15
2022-08-25T03:15:49.817Z,24.08
2022-08-25T03:18:18.222Z,24.09
2022-08-25T03:20:45.891Z,23.99
2022-08-25T03:23:12.737Z,23.85
2022-08-25T03:26:00.673Z,23.96
2022-08-25T03:28:31.070Z,23.85
2022-08-25T03:30:57.568Z,23.78
2022-08-25T03:33:24.075Z,23.75
2022-08-25T03:35:50.570Z,23.72
2022-08-25T03:38:17.131Z,23.76
2022-08-25T03:40:43.989Z,23.68
2022-08-25T03:43:10.513Z,23.69
2022-08-25T03:45:41.348Z,23.67
2022-08-25T03:48:08.344Z,23.68
2022-08-25T03:50:35.616Z,23.66
2022-08-25T03:53:02.283Z,23.55
2022-08-25T03:55:28.863Z,23.55
2022-08-25T03:57:58.040Z,23.53
2022-08-25T04:00:24.569Z,23.52
2022-08-25T04:02:51.184Z,23.42
2022-08-25T04:05:17.869Z,23.46
2022-08-25T04:07:46.039Z,23.35
2022-08-25T04:10:12.999Z,23.34
2022-08-25T04:12:39.855Z,23.34
2022-08-25T04:15:07.817Z,23.23
2022-08-25T04:17:37.791Z,23.19
2022-08-25T04:20:05.275Z,23.17
2022-08-25T04:22:31.844Z,23.16
2022-08-25T04:25:03.804Z,23.52
2022-08-25T04:27:30.324Z,23.25
2022-08-25T04:29:56.847Z,23.15
2022-08-25T04:32:23.343Z,23.16
2022-08-25T04:34:50.293Z,23.17
2022-08-25T04:37:16.900Z,23.12
2022-08-25T04:39:43.682Z,23.10
2022-08-25T04:42:10.176Z,22.94
2022-08-25T04:44:36.700Z,23.07
2022-08-25T04:47:03.955Z,23.00
2022-08-25T04:49:30.498Z,22.91
2022-08-25T04:51:57.419Z,22.93
2022-08-25T04:54:23.933Z,22.94
2022-08-25T04:56:54.118Z,22.88
2022-08-25T04:59:23.024Z,22.89
2022-08-25T05:01:52.427Z,22.84
2022-08-25T05:04:28.245Z,22.82
2022-08-25T05:06:55.400Z,22.76
2022-08-25T05:09:21.943Z,22.75
2022-08-25T05:11:48.669Z,22.72
2022-08-25T05:14:18.104Z,22.70
2022-08-25T05:16:45.412Z,22.68
2022-08-25T05:19:11.943Z,22.71
2022-08-25T05:21:38.470Z,22.67
2022-08-25T05:24:05.112Z,22.66
2022-08-25T05:26:32.899Z,22.64
2022-08-25T05:29:03.712Z,22.62
2022-08-25T05:31:31.069Z,22.66
2022-08-25T05:33:58.513Z,22.67
2022-08-25T05:36:27.267Z,22.66
2022-08-25T05:38:53.895Z,22.61
2022-08-25T05:41:25.804Z,22.68
2022-08-25T05:43:52.329Z,22.74
2022-08-25T05:46:21.173Z,22.74
2022-08-25T05:48:49.279Z,22.75
2022-08-25T05:51:16.498Z,22.74
2022-08-25T05:53:45.373Z,22.73
2022-08-25T05:56:13.960Z,22.77
2022-08-25T05:58:41.482Z,22.79
2022-08-25T06:01:26.920Z,22.79
2022-08-25T06:03:54.178Z,22.80
2022-08-25T06:06:23.000Z,22.84
2022-08-25T06:08:49.573Z,22.89
2022-08-25T06:11:16.626Z,22.84
2022-08-25T06:13:43.362Z,22.84
2022-08-25T06:16:10.148Z,22.82
2022-08-25T06:18:36.687Z,22.90
2022-08-25T06:21:12.729Z,22.83
2022-08-25T06:23:39.593Z,22.89
2022-08-25T06:26:06.530Z,22.92
2022-08-25T06:28:33.044Z,23.01
2022-08-25T06:31:01.317Z,22.96
2022-08-25T06:33:27.911Z,23.05
2022-08-25T06:35:59.423Z,23.00
2022-08-25T06:38:26.947Z,23.05
2022-08-25T06:40:53.867Z,23.05
2022-08-25T06:43:21.733Z,23.12
2022-08-25T06:45:48.564Z,23.15
2022-08-25T06:48:15.496Z,23.26
2022-08-25T06:50:42.106Z,23.28
2022-08-25T06:53:09.428Z,23.23
2022-08-25T06:55:36.116Z,23.34
2022-08-25T06:58:04.958Z,23.27
2022-08-25T07:00:32.535Z,23.39
2022-08-25T07:03:01.076Z,23.43
2022-08-25T07:05:42.642Z,23.37
2022-08-25T07:08:11.621Z,23.48
2022-08-25T07:10:38.162Z,23.50
2022-08-25T07:13:04.651Z,23.55
2022-08-25T07:15:31.151Z,23.56
2022-08-25T07:17:57.636Z,23.63
2022-08-25T07:22:52.000Z,23.73
2022-08-25T07:25:18.659Z,23.74
2022-08-25T07:27:45.554Z,23.78
2022-08-25T07:30:12.255Z,23.82
2022-08-25T07:32:42.097Z,23.86
2022-08-25T07:35:19.086Z,23.89
2022-08-25T07:37:51.609Z,23.94
2022-08-25T07:40:22.797Z,23.97
2022-08-25T07:42:51.824Z,23.99
2022-08-25T07:45:20.983Z,24.00
2022-08-25T07:47:48.347Z,24.08
2022-08-25T07:50:19.081Z,24.13
2022-08-25T07:52:52.153Z,24.18
2022-08-25T07:55:22.052Z,24.22
2022-08-25T07:57:50.908Z,24.29
2022-08-25T08:00:22.222Z,24.40
2022-08-25T08:02:50.951Z,24.45
2022-08-25T08:05:17.805Z,24.52
2022-08-25T08:07:44.410Z,24.53
2022-08-25T08:10:47.844Z,24.56
2022-08-25T08:13:01.634Z,24.67
2022-08-25T08:15:29.809Z,24.74
2022-08-25T08:17:57.997Z,24.83
2022-08-25T08:20:25.064Z,24.94
2022-08-25T08:22:52.027Z,24.99
2022-08-25T08:25:21.543Z,25.04
2022-08-25T08:27:59.375Z,25.01
2022-08-25T08:30:26.599Z,25.14
2022-08-25T08:33:11.924Z,25.26
2022-08-25T08:35:40.409Z,25.27
2022-08-25T08:38:14.943Z,25.39
2022-08-25T08:41:23.195Z,25.42
2022-08-25T08:43:56.283Z,25.52
2022-08-25T08:46:23.320Z,25.70
2022-08-25T08:49:01.834Z,25.70
2022-08-25T08:51:36.432Z,25.72
2022-08-25T08:54:15.086Z,25.75
2022-08-25T08:56:48.049Z,25.89
2022-08-25T08:59:22.021Z,25.94
2022-08-25T09:02:00.449Z,26.03
2022-08-25T09:04:41.700Z,26.14
2022-08-25T09:07:12.861Z,26.22
2022-08-25T09:09:40.601Z,26.22
2022-08-25T09:12:37.390Z,26.34
2022-08-25T09:15:18.211Z,26.40
2022-08-25T09:18:06.920Z,26.55
2022-08-25T09:20:46.779Z,26.64
2022-08-25T09:23:42.567Z,26.77
2022-08-25T09:26:36.905Z,26.84
2022-08-25T09:29:16.353Z,26.98
2022-08-25T09:31:44.916Z,27.02
2022-08-25T09:34:23.280Z,27.09
2022-08-25T09:36:52.839Z,27.21
2022-08-25T09:39:20.567Z,27.28
2022-08-25T09:41:53.813Z,27.40
2022-08-25T09:44:26.420Z,27.41
2022-08-25T09:47:15.177Z,27.53
2022-08-25T09:49:45.185Z,27.96
2022-08-25T09:52:32.682Z,27.73
2022-08-25T09:55:40.134Z,27.77
2022-08-25T09:58:17.538Z,27.81
2022-08-25T10:00:44.066Z,27.99
2022-08-25T10:03:24.681Z,28.11
2022-08-25T10:06:04.307Z,28.16
2022-08-25T10:08:40.278Z,28.26
2022-08-25T10:11:12.960Z,28.52
2022-08-25T10:13:44.508Z,28.60
2022-08-25T10:16:24.418Z,28.67
2022-08-25T10:19:22.501Z,28.75
2022-08-25T10:22:31.679Z,28.72
2022-08-25T10:25:04.801Z,29.02
2022-08-25T10:28:02.751Z,28.93
2022-08-25T10:30:56.851Z,29.14
2022-08-25T10:33:33.612Z,29.32
2022-08-25T10:36:12.011Z,29.57
2022-08-25T10:38:47.548Z,29.63
2022-08-25T10:41:36.297Z,29.66
2022-08-25T10:44:41.333Z,29.81
2022-08-25T10:47:38.521Z,29.75
2022-08-25T10:50:13.174Z,29.85
2022-08-25T10:53:13.674Z,29.86
2022-08-25T10:55:59.435Z,29.81
2022-08-25T10:59:00.751Z,29.76
2022-08-25T11:01:43.702Z,29.79
2022-08-25T11:04:26.060Z,29.84
2022-08-25T11:07:05.711Z,29.91
2022-08-25T11:09:39.200Z,29.93
2022-08-25T11:12:20.377Z,29.90
2022-08-25T11:14:52.754Z,29.96
2022-08-25T11:17:32.852Z,29.99
2022-08-25T11:20:07.413Z,30.02
2022-08-25T11:22:45.767Z,30.10
2022-08-25T11:25:46.017Z,30.19
2022-08-25T11:28:30.957Z,30.30
2022-08-25T11:31:00.642Z,30.46
2022-08-25T11:33:30.399Z,30.53
2022-08-25T11:35:59.900Z,30.74
2022-08-25T11:38:48.429Z,30.74
2022-08-25T11:41:53.401Z,30.83
2022-08-25T11:44:57.431Z,30.90
2022-08-25T11:47:47.825Z,30.95
2022-08-25T11:50:23.994Z,31.05
2022-08-25T11:52:57.611Z,31.16
2022-08-25T11:55:34.859Z,31.46
2022-08-25T11:58:26.223Z,31.55
2022-08-25T12:00:53.804Z,31.64
2022-08-25T12:03:32.138Z,31.75
2022-08-25T12:06:24.975Z,31.80
2022-08-25T12:09:00.630Z,31.82
2022-08-25T12:11:42.288Z,31.76
2022-08-25T12:14:16.084Z,31.90
2022-08-25T12:16:56.187Z,31.83
2022-08-25T12:19:28.974Z,31.96
2022-08-25T12:22:19.069Z,32.13
2022-08-25T12:25:08.637Z,32.14
2022-08-25T12:28:00.088Z,32.34
2022-08-25T12:30:38.804Z,32.56
2022-08-25T12:33:46.035Z,32.64
2022-08-25T12:36:27.763Z,32.72
2022-08-25T12:38:54.532Z,32.86
2022-08-25T12:41:26.051Z,32.88
2022-08-25T12:44:08.537Z,32.99
2022-08-25T12:46:39.344Z,32.94
2022-08-25T12:49:30.891Z,33.10
2022-08-25T12:52:30.794Z,33.24
2022-08-25T12:55:00.441Z,33.31
2022-08-25T12:57:50.840Z,33.42
2022-08-25T13:00:23.485Z,33.52
2022-08-25T13:03:20.360Z,33.54
2022-08-25T13:06:14.110Z,33.67
2022-08-25T13:09:00.306Z,33.66
2022-08-25T13:11:36.812Z,33.67
2022-08-25T13:14:20.166Z,33.80
2022-08-25T13:16:59.005Z,33.81
2022-08-25T13:19:27.227Z,33.90
2022-08-25T13:21:58.893Z,33.93
2022-08-25T13:24:32.614Z,34.13
2022-08-25T13:27:10.572Z,34.21
2022-08-25T13:29:51.112Z,34.23
2022-08-25T13:32:31.967Z,34.30
2022-08-25T13:35:17.477Z,34.37
2022-08-25T13:37:44.272Z,34.36
2022-08-25T13:40:33.669Z,34.39
2022-08-25T13:43:07.788Z,34.47
2022-08-25T13:45:45.642Z,34.38
2022-08-25T13:48:22.566Z,34.51
2022-08-25T13:50:51.893Z,34.55
2022-08-25T13:53:25.705Z,34.57
2022-08-25T13:55:57.098Z,34.82
2022-08-25T13:58:44.644Z,34.89
2022-08-25T14:01:48.413Z,34.81
2022-08-25T14:04:25.618Z,34.83
2022-08-25T14:07:20.757Z,34.96
2022-08-25T14:09:48.724Z,34.87
2022-08-25T14:12:33.601Z,35.14
2022-08-25T14:15:17.730Z,35.04
2022-08-25T14:18:17.853Z,35.26
2022-08-25T14:20:50.498Z,35.27
2022-08-25T14:23:20.916Z,35.34
2022-08-25T14:25:52.577Z,35.60
2022-08-25T14:28:22.764Z,35.53
2022-08-25T14:31:00.292Z,35.76
2022-08-25T14:33:32.859Z,35.53
2022-08-25T14:36:02.633Z,35.62
2022-08-25T14:38:29.372Z,35.51
2022-08-25T14:40:59.325Z,35.54
2022-08-25T14:43:31.769Z,35.43
2022-08-25T14:46:00.580Z,35.46
2022-08-25T14:48:39.229Z,35.48
2022-08-25T14:51:05.884Z,35.62
2022-08-25T14:53:33.333Z,35.75
2022-08-25T14:56:00.587Z,35.82
2022-08-25T14:58:35.022Z,36.01
2022-08-25T15:01:17.735Z,35.76
2022-08-25T15:03:51.125Z,35.84
2022-08-25T15:06:17.739Z,36.25
2022-08-25T15:09:02.939Z,35.97
2022-08-25T15:11:31.114Z,36.04
2022-08-25T15:14:01.222Z,36.14
2022-08-25T15:16:47.813Z,36.28
2022-08-25T15:19:18.048Z,36.32
2022-08-25T15:21:45.810Z,36.37
2022-08-25T15:24:17.642Z,36.32
2022-08-25T15:29:25.353Z,36.23
2022-08-25T15:31:52.138Z,36.22
2022-08-25T15:34:19.248Z,36.46
2022-08-25T15:36:45.917Z,36.46
2022-08-25T15:39:14.780Z,36.29
2022-08-25T15:41:45.948Z,36.44
2022-08-25T15:44:16.033Z,36.31
2022-08-25T15:46:45.140Z,36.46
2022-08-25T15:49:16.268Z,36.39
2022-08-25T15:51:50.221Z,36.52
2022-08-25T15:54:17.058Z,36.70
2022-08-25T15:56:44.291Z,36.66
2022-08-25T15:59:13.338Z,36.62
2022-08-25T16:01:41.168Z,36.58
2022-08-25T16:04:07.713Z,36.47
2022-08-25T16:06:34.245Z,36.36
2022-08-25T16:09:01.032Z,36.50
2022-08-25T16:11:30.893Z,36.49
2022-08-25T16:13:57.764Z,36.38
2022-08-25T16:16:28.686Z,36.16
2022-08-25T16:18:55.750Z,36.14
2022-08-25T16:21:30.054Z,36.05
2022-08-25T16:24:01.874Z,36.06
2022-08-25T16:26:31.159Z,36.02
2022-08-25T16:28:57.929Z,35.98
2022-08-25T16:31:24.531Z,35.87
2022-08-25T16:33:53.559Z,35.84
2022-08-25T16:36:24.941Z,35.87
2022-08-25T16:38:54.823Z,35.55
2022-08-25T16:41:24.621Z,35.40
2022-08-25T16:43:52.051Z,35.49
2022-08-25T16:46:20.812Z,35.41
2022-08-25T16:48:48.455Z,35.49
2022-08-25T16:51:19.304Z,35.52
2022-08-25T16:54:08.163Z,35.53
2022-08-25T16:56:37.079Z,35.68
2022-08-25T16:59:06.351Z,35.63
2022-08-25T17:01:36.372Z,35.60
2022-08-25T17:04:03.883Z,35.43
2022-08-25T17:06:35.131Z,35.47
2022-08-25T17:09:01.714Z,35.47
2022-08-25T17:11:35.138Z,35.35
2022-08-25T17:14:04.549Z,35.52
2022-08-25T17:16:37.854Z,35.37
2022-08-25T17:19:08.031Z,35.22
2022-08-25T17:21:40.931Z,35.35
2022-08-25T17:24:12.221Z,35.16
2022-08-25T17:26:40.957Z,35.06
2022-08-25T17:29:08.065Z,34.77
2022-08-25T17:31:39.573Z,34.83
2022-08-25T17:34:10.543Z,34.70
2022-08-25T17:36:38.217Z,34.72
2022-08-25T17:39:07.625Z,34.57
2022-08-25T17:41:34.320Z,34.65
2022-08-25T17:44:04.725Z,34.65
2022-08-25T17:46:31.784Z,34.64
2022-08-25T17:48:58.446Z,34.49
2022-08-25T17:51:25.156Z,34.53
2022-08-25T17:53:52.717Z,34.39
2022-08-25T17:56:21.887Z,34.36
2022-08-25T17:58:48.729Z,34.18
2022-08-25T18:01:22.367Z,34.11
2022-08-25T18:03:49.302Z,34.06
2022-08-25T18:06:16.279Z,33.94
2022-08-25T18:08:44.014Z,33.92
2022-08-25T18:11:10.847Z,33.79
2022-08-25T18:13:38.747Z,33.77
2022-08-25T18:16:05.731Z,33.76
2022-08-25T18:18:34.252Z,33.55
2022-08-25T18:21:02.589Z,33.50
2022-08-25T18:23:29.750Z,33.39
2022-08-25T18:26:01.082Z,33.09
2022-08-25T18:28:28.783Z,32.65
2022-08-25T18:30:56.531Z,32.31
2022-08-25T18:33:23.375Z,32.35
2022-08-25T18:35:49.935Z,32.40
2022-08-25T18:38:36.507Z,32.31
2022-08-25T18:41:06.590Z,32.15
2022-08-25T18:43:34.872Z,32.15
2022-08-25T18:46:04.772Z,31.98
2022-08-25T18:48:32.369Z,32.09
2022-08-25T18:51:00.881Z,31.81
2022-08-25T18:53:30.592Z,31.65
2022-08-25T18:56:05.173Z,31.58
2022-08-25T18:58:32.111Z,31.37
2022-08-25T19:00:59.345Z,31.43
2022-08-25T19:03:26.616Z,31.18
2022-08-25T19:05:57.696Z,30.93
2022-08-25T19:08:25.081Z,30.62
2022-08-25T19:10:53.224Z,30.55
2022-08-25T19:13:22.758Z,30.44
2022-08-25T19:15:50.481Z,30.54
2022-08-25T19:18:18.497Z,30.43
2022-08-25T19:20:45.569Z,30.57
2022-08-25T19:23:13.136Z,30.45
2022-08-25T19:25:41.624Z,30.55
2022-08-25T19:28:11.902Z,30.34
2022-08-25T19:30:49.799Z,30.31
2022-08-25T19:33:42.717Z,30.44
2022-08-25T19:36:06.234Z,30.30
2022-08-25T19:38:36.367Z,29.88
2022-08-25T19:41:13.831Z,29.79
2022-08-25T19:43:55.053Z,29.89
2022-08-25T19:46:23.364Z,29.83
2022-08-25T19:48:50.591Z,29.50
2022-08-25T19:51:19.211Z,29.20
2022-08-25T19:53:53.606Z,29.06
2022-08-25T19:56:21.544Z,29.06
2022-08-25T19:58:48.052Z,28.55
2022-08-25T20:01:16.567Z,28.75
2022-08-25T20:03:45.293Z,28.51
2022-08-25T20:06:12.179Z,28.36
2022-08-25T20:08:42.795Z,28.49
2022-08-25T20:11:09.448Z,28.13
2022-08-25T20:13:36.066Z,28.35
2022-08-25T20:16:03.767Z,28.31
2022-08-25T20:18:32.646Z,28.27
2022-08-25T20:21:00.416Z,28.23
2022-08-25T20:23:45.931Z,28.19
2022-08-25T20:26:12.454Z,28.16
2022-08-25T20:28:42.144Z,27.88
2022-08-25T20:31:09.043Z,27.80
2022-08-25T20:33:35.948Z,27.71
2022-08-25T20:36:04.589Z,27.77
2022-08-25T20:38:31.960Z,27.56
2022-08-25T20:41:00.638Z,27.44
2022-08-25T20:43:29.479Z,27.43
2022-08-25T20:46:04.526Z,27.14
2022-08-25T20:48:31.237Z,27.11
2022-08-25T20:50:58.254Z,27.18
2022-08-25T20:53:25.403Z,26.74
2022-08-25T20:55:51.932Z,26.69
2022-08-25T20:58:18.825Z,26.87
2022-08-25T21:00:45.851Z,27.04
2022-08-25T21:03:12.634Z,27.09
2022-08-25T21:05:40.898Z,26.91
2022-08-25T21:08:07.910Z,26.74
2022-08-25T21:10:34.915Z,26.73
2022-08-25T21:13:01.460Z,26.72
2022-08-25T21:15:28.529Z,26.62
2022-08-25T21:17:55.710Z,26.41
2022-08-25T21:20:23.980Z,26.22
2022-08-25T21:22:51.315Z,26.38
2022-08-25T21:25:20.200Z,26.10
2022-08-25T21:27:47.936Z,26.04
2022-08-25T21:30:15.883Z,26.23
2022-08-25T21:32:53.698Z,26.18
2022-08-25T21:35:22.498Z,25.83
2022-08-25T21:37:53.078Z,25.82
2022-08-25T21:40:22.665Z,25.89
2022-08-25T21:42:49.572Z,25.80
2022-08-25T21:45:16.510Z,25.74
2022-08-25T21:47:47.388Z,26.22
2022-08-25T21:50:13.949Z,25.91
2022-08-25T21:52:41.197Z,25.84
2022-08-25T21:55:15.715Z,25.93
2022-08-25T21:57:43.109Z,25.63
2022-08-25T22:00:11.412Z,25.49
2022-08-25T22:02:38.651Z,25.66
2022-08-25T22:05:09.121Z,25.77
2022-08-25T22:07:40.490Z,25.85
2022-08-25T22:10:09.428Z,25.85
2022-08-25T22:12:43.440Z,25.50
2022-08-25T22:15:12.481Z,25.53
2022-08-25T22:17:40.569Z,25.68
2022-08-25T22:20:08.516Z,25.65
2022-08-25T22:22:36.012Z,25.66
2022-08-25T22:25:02.732Z,25.48
2022-08-25T22:27:31.627Z,25.52
2022-08-25T22:29:59.071Z,25.51
2022-08-25T22:32:25.575Z,25.25
2022-08-25T22:34:52.583Z,25.28
2022-08-25T22:37:19.405Z,25.18
2022-08-25T22:39:46.481Z,25.49
2022-08-25T22:42:13.828Z,25.29
2022-08-25T22:44:42.299Z,25.22
2022-08-25T22:47:12.332Z,24.94
2022-08-25T22:49:39.698Z,25.14
2022-08-25T22:52:07.392Z,24.99
2022-08-25T22:54:38.026Z,25.49
2022-08-25T22:57:06.837Z,25.26
2022-08-25T22:59:34.133Z,25.23
2022-08-25T23:02:00.657Z,25.05
2022-08-25T23:04:27.274Z,24.93
2022-08-25T23:06:53.868Z,25.06
2022-08-25T23:09:21.394Z,24.83
2022-08-25T23:11:48.011Z,24.64
2022-08-25T23:14:18.393Z,24.56
2022-08-25T23:16:45.012Z,24.56
2022-08-25T23:19:13.829Z,24.37
2022-08-25T23:22:00.159Z,24.45
2022-08-25T23:24:29.502Z,24.33
2022-08-25T23:27:01.207Z,24.25
2022-08-25T23:29:29.725Z,24.52
2022-08-25T23:31:58.168Z,24.19
2022-08-25T23:34:25.899Z,24.20
2022-08-25T23:36:53.011Z,24.35
2022-08-25T23:39:21.878Z,24.08
2022-08-25T23:41:49.607Z,24.18
2022-08-25T23:44:17.356Z,24.24
2022-08-25T23:46:44.793Z,24.04
2022-08-25T23:49:12.247Z,24.01
2022-08-25T23:51:39.978Z,23.92
2022-08-25T23:54:10.829Z,23.91
2022-08-25T23:56:42.350Z,23.87
2022-08-25T23:59:18.896Z,23.89
